sensor_id;sensor_type;location;lat;lon;timestamp;P1;durP1;ratioP1;P2;durP2;ratioP2
17595;SDS011;8916;47.086;15.920;2022-07-03T00:00:47;3.85;;;3.00;;
17595;SDS011;8916;47.086;15.920;2022-07-03T00:03:16;4.75;;;2.92;;
17595;SDS011;8916;47.086;15.920;2022-07-03T00:05:45;5.00;;;3.75;;
17595;SDS011;8916;47.086;15.920;2022-07-03T00:08:15;5.55;;;3.47;;
17595;SDS011;8916;47.086;15.920;2022-07-03T00:10:44;9.30;;;4.07;;
17595;SDS011;8916;47.086;15.920;2022-07-03T00:13:15;6.80;;;3.60;;
17595;SDS011;8916;47.086;15.920;2022-07-03T00:15:44;4.85;;;3.50;;
17595;SDS011;8916;47.086;15.920;2022-07-03T00:18:13;4.85;;;3.55;;
17595;SDS011;8916;47.086;15.920;2022-07-03T00:20:44;4.65;;;3.78;;
17595;SDS011;8916;47.086;15.920;2022-07-03T00:23:17;5.22;;;3.63;;
17595;SDS011;8916;47.086;15.920;2022-07-03T00:25:47;4.70;;;3.35;;
17595;SDS011;8916;47.086;15.920;2022-07-03T00:28:19;4.43;;;3.50;;
17595;SDS011;8916;47.086;15.920;2022-07-03T00:30:50;6.05;;;3.65;;
17595;SDS011;8916;47.086;15.920;2022-07-03T00:33:22;8.00;;;4.18;;
17595;SDS011;8916;47.086;15.920;2022-07-03T00:35:55;5.97;;;4.78;;
17595;SDS011;8916;47.086;15.920;2022-07-03T00:38:25;7.72;;;5.35;;
17595;SDS011;8916;47.086;15.920;2022-07-03T00:40:55;7.60;;;4.75;;
17595;SDS011;8916;47.086;15.920;2022-07-03T00:43:26;4.53;;;3.83;;
17595;SDS011;8916;47.086;15.920;2022-07-03T00:45:55;9.43;;;4.28;;
17595;SDS011;8916;47.086;15.920;2022-07-03T00:48:36;6.85;;;3.97;;
17595;SDS011;8916;47.086;15.920;2022-07-03T00:51:06;6.43;;;4.32;;
17595;SDS011;8916;47.086;15.920;2022-07-03T00:53:38;4.60;;;3.60;;
17595;SDS011;8916;47.086;15.920;2022-07-03T00:56:10;4.78;;;3.50;;
17595;SDS011;8916;47.086;15.920;2022-07-03T00:58:45;6.72;;;3.60;;
17595;SDS011;8916;47.086;15.920;2022-07-03T01:01:15;5.95;;;3.35;;
17595;SDS011;8916;47.086;15.920;2022-07-03T01:03:47;4.38;;;3.30;;
17595;SDS011;8916;47.086;15.920;2022-07-03T01:06:22;4.25;;;3.35;;
17595;SDS011;8916;47.086;15.920;2022-07-03T01:08:52;3.65;;;3.28;;
17595;SDS011;8916;47.086;15.920;2022-07-03T01:11:32;4.45;;;3.22;;
17595;SDS011;8916;47.086;15.920;2022-07-03T01:14:13;3.67;;;3.10;;
17595;SDS011;8916;47.086;15.920;2022-07-03T01:16:54;5.70;;;3.42;;
17595;SDS011;8916;47.086;15.920;2022-07-03T01:19:33;5.75;;;3.40;;
17595;SDS011;8916;47.086;15.920;2022-07-03T01:22:14;5.22;;;3.28;;
17595;SDS011;8916;47.086;15.920;2022-07-03T01:27:58;4.00;;;3.50;;
17595;SDS011;8916;47.086;15.920;2022-07-03T01:30:40;4.88;;;4.38;;
17595;SDS011;8916;47.086;15.920;2022-07-03T01:33:16;4.10;;;3.70;;
17595;SDS011;8916;47.086;15.920;2022-07-03T01:35:52;4.78;;;4.00;;
17595;SDS011;8916;47.086;15.920;2022-07-03T01:38:32;4.78;;;4.00;;
17595;SDS011;8916;47.086;15.920;2022-07-03T01:41:04;5.72;;;4.50;;
17595;SDS011;8916;47.086;15.920;2022-07-03T01:43:38;4.82;;;4.00;;
17595;SDS011;8916;47.086;15.920;2022-07-03T01:46:12;7.30;;;4.30;;
17595;SDS011;8916;47.086;15.920;2022-07-03T01:48:43;7.32;;;4.55;;
17595;SDS011;8916;47.086;15.920;2022-07-03T01:51:14;4.68;;;4.03;;
17595;SDS011;8916;47.086;15.920;2022-07-03T01:53:46;7.03;;;4.43;;
17595;SDS011;8916;47.086;15.920;2022-07-03T01:56:17;6.57;;;3.97;;
17595;SDS011;8916;47.086;15.920;2022-07-03T01:58:51;8.20;;;4.57;;
17595;SDS011;8916;47.086;15.920;2022-07-03T02:01:20;8.18;;;4.40;;
17595;SDS011;8916;47.086;15.920;2022-07-03T02:03:56;5.45;;;4.28;;
17595;SDS011;8916;47.086;15.920;2022-07-03T02:09:08;6.45;;;4.45;;
17595;SDS011;8916;47.086;15.920;2022-07-03T02:11:55;6.78;;;4.35;;
17595;SDS011;8916;47.086;15.920;2022-07-03T02:14:31;4.68;;;3.92;;
17595;SDS011;8916;47.086;15.920;2022-07-03T02:17:05;6.28;;;4.32;;
17595;SDS011;8916;47.086;15.920;2022-07-03T02:19:48;4.85;;;3.63;;
17595;SDS011;8916;47.086;15.920;2022-07-03T02:22:24;4.25;;;3.85;;
17595;SDS011;8916;47.086;15.920;2022-07-03T02:24:57;4.28;;;3.40;;
17595;SDS011;8916;47.086;15.920;2022-07-03T02:27:32;4.05;;;3.55;;
17595;SDS011;8916;47.086;15.920;2022-07-03T02:30:12;6.65;;;3.97;;
17595;SDS011;8916;47.086;15.920;2022-07-03T02:32:43;5.43;;;3.80;;
17595;SDS011;8916;47.086;15.920;2022-07-03T02:35:19;7.43;;;5.07;;
17595;SDS011;8916;47.086;15.920;2022-07-03T02:37:56;7.57;;;4.88;;
17595;SDS011;8916;47.086;15.920;2022-07-03T02:40:32;5.00;;;3.90;;
17595;SDS011;8916;47.086;15.920;2022-07-03T02:43:12;5.15;;;4.25;;
17595;SDS011;8916;47.086;15.920;2022-07-03T02:45:49;9.85;;;4.07;;
17595;SDS011;8916;47.086;15.920;2022-07-03T02:48:50;5.95;;;3.85;;
17595;SDS011;8916;47.086;15.920;2022-07-03T02:51:28;5.78;;;3.80;;
17595;SDS011;8916;47.086;15.920;2022-07-03T02:54:09;6.78;;;4.22;;
17595;SDS011;8916;47.086;15.920;2022-07-03T02:56:43;7.70;;;4.65;;
17595;SDS011;8916;47.086;15.920;2022-07-03T02:59:27;7.45;;;4.82;;
17595;SDS011;8916;47.086;15.920;2022-07-03T03:02:16;5.75;;;4.88;;
17595;SDS011;8916;47.086;15.920;2022-07-03T03:04:56;8.38;;;5.38;;
17595;SDS011;8916;47.086;15.920;2022-07-03T03:07:33;9.80;;;6.22;;
17595;SDS011;8916;47.086;15.920;2022-07-03T03:10:09;6.43;;;5.15;;
17595;SDS011;8916;47.086;15.920;2022-07-03T03:12:41;9.10;;;5.18;;
17595;SDS011;8916;47.086;15.920;2022-07-03T03:15:14;5.97;;;4.43;;
17595;SDS011;8916;47.086;15.920;2022-07-03T03:17:50;5.38;;;4.40;;
17595;SDS011;8916;47.086;15.920;2022-07-03T03:20:21;7.18;;;4.70;;
17595;SDS011;8916;47.086;15.920;2022-07-03T03:22:59;6.38;;;5.03;;
17595;SDS011;8916;47.086;15.920;2022-07-03T03:25:50;10.38;;;4.50;;
17595;SDS011;8916;47.086;15.920;2022-07-03T03:28:21;5.07;;;4.43;;
17595;SDS011;8916;47.086;15.920;2022-07-03T03:30:50;8.05;;;4.53;;
17595;SDS011;8916;47.086;15.920;2022-07-03T03:33:21;4.90;;;4.43;;
17595;SDS011;8916;47.086;15.920;2022-07-03T03:35:51;6.32;;;4.38;;
17595;SDS011;8916;47.086;15.920;2022-07-03T03:38:20;7.68;;;4.93;;
17595;SDS011;8916;47.086;15.920;2022-07-03T03:40:50;6.80;;;5.03;;
17595;SDS011;8916;47.086;15.920;2022-07-03T03:43:20;6.35;;;5.18;;
17595;SDS011;8916;47.086;15.920;2022-07-03T03:45:49;6.95;;;5.13;;
17595;SDS011;8916;47.086;15.920;2022-07-03T03:48:18;11.65;;;7.15;;
17595;SDS011;8916;47.086;15.920;2022-07-03T03:50:49;9.45;;;6.30;;
17595;SDS011;8916;47.086;15.920;2022-07-03T03:53:19;6.47;;;5.88;;
17595;SDS011;8916;47.086;15.920;2022-07-03T03:55:58;9.35;;;6.60;;
17595;SDS011;8916;47.086;15.920;2022-07-03T03:58:29;7.78;;;6.22;;
17595;SDS011;8916;47.086;15.920;2022-07-03T04:01:00;8.30;;;5.70;;
17595;SDS011;8916;47.086;15.920;2022-07-03T04:03:33;7.40;;;5.45;;
17595;SDS011;8916;47.086;15.920;2022-07-03T04:06:04;7.72;;;6.25;;
17595;SDS011;8916;47.086;15.920;2022-07-03T04:08:33;11.13;;;5.97;;
17595;SDS011;8916;47.086;15.920;2022-07-03T04:11:03;8.05;;;6.05;;
17595;SDS011;8916;47.086;15.920;2022-07-03T04:13:32;10.45;;;6.38;;
17595;SDS011;8916;47.086;15.920;2022-07-03T04:16:01;7.00;;;5.90;;
17595;SDS011;8916;47.086;15.920;2022-07-03T04:18:30;10.05;;;6.85;;
17595;SDS011;8916;47.086;15.920;2022-07-03T04:21:01;7.60;;;6.65;;
17595;SDS011;8916;47.086;15.920;2022-07-03T04:23:31;9.05;;;7.25;;
17595;SDS011;8916;47.086;15.920;2022-07-03T04:26:03;7.75;;;6.15;;
17595;SDS011;8916;47.086;15.920;2022-07-03T04:28:40;10.25;;;6.43;;
17595;SDS011;8916;47.086;15.920;2022-07-03T04:31:09;6.25;;;5.40;;
17595;SDS011;8916;47.086;15.920;2022-07-03T04:33:40;10.07;;;5.35;;
17595;SDS011;8916;47.086;15.920;2022-07-03T04:36:14;7.20;;;5.47;;
17595;SDS011;8916;47.086;15.920;2022-07-03T04:38:43;6.38;;;4.78;;
17595;SDS011;8916;47.086;15.920;2022-07-03T04:41:12;5.35;;;4.50;;
17595;SDS011;8916;47.086;15.920;2022-07-03T04:43:42;6.28;;;4.82;;
17595;SDS011;8916;47.086;15.920;2022-07-03T04:46:11;5.88;;;4.70;;
17595;SDS011;8916;47.086;15.920;2022-07-03T04:48:41;5.93;;;4.50;;
17595;SDS011;8916;47.086;15.920;2022-07-03T04:51:11;7.75;;;4.10;;
17595;SDS011;8916;47.086;15.920;2022-07-03T04:53:40;5.15;;;3.80;;
17595;SDS011;8916;47.086;15.920;2022-07-03T04:56:10;7.90;;;4.22;;
17595;SDS011;8916;47.086;15.920;2022-07-03T04:58:39;6.22;;;3.70;;
17595;SDS011;8916;47.086;15.920;2022-07-03T05:01:08;9.35;;;4.10;;
17595;SDS011;8916;47.086;15.920;2022-07-03T05:03:38;4.88;;;4.13;;
17595;SDS011;8916;47.086;15.920;2022-07-03T05:06:09;4.78;;;3.65;;
17595;SDS011;8916;47.086;15.920;2022-07-03T05:08:43;6.25;;;3.67;;
17595;SDS011;8916;47.086;15.920;2022-07-03T05:11:12;11.82;;;4.35;;
17595;SDS011;8916;47.086;15.920;2022-07-03T05:13:41;4.22;;;3.50;;
17595;SDS011;8916;47.086;15.920;2022-07-03T05:16:11;3.83;;;3.40;;
17595;SDS011;8916;47.086;15.920;2022-07-03T05:18:43;4.57;;;3.60;;
17595;SDS011;8916;47.086;15.920;2022-07-03T05:21:13;3.67;;;3.25;;
17595;SDS011;8916;47.086;15.920;2022-07-03T05:23:42;4.20;;;3.50;;
17595;SDS011;8916;47.086;15.920;2022-07-03T05:26:12;7.07;;;3.03;;
17595;SDS011;8916;47.086;15.920;2022-07-03T05:28:41;5.18;;;3.30;;
17595;SDS011;8916;47.086;15.920;2022-07-03T05:31:10;7.57;;;3.28;;
17595;SDS011;8916;47.086;15.920;2022-07-03T05:33:40;4.32;;;2.92;;
17595;SDS011;8916;47.086;15.920;2022-07-03T05:36:09;5.75;;;3.63;;
17595;SDS011;8916;47.086;15.920;2022-07-03T05:38:40;4.65;;;3.50;;
17595;SDS011;8916;47.086;15.920;2022-07-03T05:43:55;4.18;;;3.22;;
17595;SDS011;8916;47.086;15.920;2022-07-03T05:46:25;6.60;;;3.58;;
17595;SDS011;8916;47.086;15.920;2022-07-03T05:48:55;4.93;;;2.88;;
17595;SDS011;8916;47.086;15.920;2022-07-03T05:51:24;4.72;;;2.97;;
17595;SDS011;8916;47.086;15.920;2022-07-03T05:53:55;4.28;;;2.83;;
17595;SDS011;8916;47.086;15.920;2022-07-03T05:56:24;4.68;;;3.05;;
17595;SDS011;8916;47.086;15.920;2022-07-03T05:58:53;6.47;;;3.00;;
17595;SDS011;8916;47.086;15.920;2022-07-03T06:01:23;4.05;;;2.70;;
17595;SDS011;8916;47.086;15.920;2022-07-03T06:03:52;4.70;;;2.88;;
17595;SDS011;8916;47.086;15.920;2022-07-03T06:06:22;5.82;;;3.08;;
17595;SDS011;8916;47.086;15.920;2022-07-03T06:08:51;3.50;;;3.10;;
17595;SDS011;8916;47.086;15.920;2022-07-03T06:11:22;2.92;;;2.63;;
17595;SDS011;8916;47.086;15.920;2022-07-03T06:13:51;5.05;;;2.88;;
17595;SDS011;8916;47.086;15.920;2022-07-03T06:16:20;3.45;;;2.55;;
17595;SDS011;8916;47.086;15.920;2022-07-03T06:18:50;3.13;;;2.78;;
17595;SDS011;8916;47.086;15.920;2022-07-03T06:21:19;3.50;;;3.20;;
17595;SDS011;8916;47.086;15.920;2022-07-03T06:23:55;5.43;;;3.15;;
17595;SDS011;8916;47.086;15.920;2022-07-03T06:26:26;3.60;;;2.90;;
17595;SDS011;8916;47.086;15.920;2022-07-03T06:28:56;5.28;;;2.85;;
17595;SDS011;8916;47.086;15.920;2022-07-03T06:31:25;3.90;;;3.00;;
17595;SDS011;8916;47.086;15.920;2022-07-03T06:33:54;4.22;;;3.30;;
17595;SDS011;8916;47.086;15.920;2022-07-03T06:36:23;3.85;;;3.22;;
17595;SDS011;8916;47.086;15.920;2022-07-03T06:38:53;3.97;;;3.50;;
17595;SDS011;8916;47.086;15.920;2022-07-03T06:41:22;3.47;;;3.17;;
17595;SDS011;8916;47.086;15.920;2022-07-03T06:43:53;4.13;;;3.72;;
17595;SDS011;8916;47.086;15.920;2022-07-03T06:46:22;3.67;;;3.13;;
17595;SDS011;8916;47.086;15.920;2022-07-03T06:48:51;8.40;;;3.75;;
17595;SDS011;8916;47.086;15.920;2022-07-03T06:51:20;6.07;;;3.40;;
17595;SDS011;8916;47.086;15.920;2022-07-03T06:53:50;8.85;;;3.30;;
17595;SDS011;8916;47.086;15.920;2022-07-03T06:56:19;4.78;;;3.65;;
17595;SDS011;8916;47.086;15.920;2022-07-03T06:58:56;4.05;;;3.50;;
17595;SDS011;8916;47.086;15.920;2022-07-03T07:01:25;4.22;;;3.53;;
17595;SDS011;8916;47.086;15.920;2022-07-03T07:03:56;5.40;;;3.40;;
17595;SDS011;8916;47.086;15.920;2022-07-03T07:06:25;4.78;;;3.40;;
17595;SDS011;8916;47.086;15.920;2022-07-03T07:08:54;6.05;;;3.15;;
17595;SDS011;8916;47.086;15.920;2022-07-03T07:11:24;3.30;;;3.00;;
17595;SDS011;8916;47.086;15.920;2022-07-03T07:13:53;3.65;;;3.20;;
17595;SDS011;8916;47.086;15.920;2022-07-03T07:16:24;6.13;;;3.30;;
17595;SDS011;8916;47.086;15.920;2022-07-03T07:18:54;4.05;;;3.13;;
17595;SDS011;8916;47.086;15.920;2022-07-03T07:21:23;3.47;;;3.00;;
17595;SDS011;8916;47.086;15.920;2022-07-03T07:23:53;5.63;;;3.55;;
17595;SDS011;8916;47.086;15.920;2022-07-03T07:26:22;3.25;;;2.95;;
17595;SDS011;8916;47.086;15.920;2022-07-03T07:28:52;5.43;;;3.33;;
17595;SDS011;8916;47.086;15.920;2022-07-03T07:31:22;5.78;;;3.20;;
17595;SDS011;8916;47.086;15.920;2022-07-03T07:33:52;3.28;;;2.97;;
17595;SDS011;8916;47.086;15.920;2022-07-03T07:36:22;4.53;;;3.38;;
17595;SDS011;8916;47.086;15.920;2022-07-03T07:38:52;3.60;;;3.15;;
17595;SDS011;8916;47.086;15.920;2022-07-03T07:41:22;6.72;;;3.72;;
17595;SDS011;8916;47.086;15.920;2022-07-03T07:43:57;5.60;;;3.28;;
17595;SDS011;8916;47.086;15.920;2022-07-03T07:46:29;3.72;;;2.90;;
17595;SDS011;8916;47.086;15.920;2022-07-03T07:48:59;4.10;;;3.20;;
17595;SDS011;8916;47.086;15.920;2022-07-03T07:51:29;8.73;;;3.33;;
17595;SDS011;8916;47.086;15.920;2022-07-03T07:53:58;3.85;;;3.13;;
17595;SDS011;8916;47.086;15.920;2022-07-03T07:56:28;3.28;;;2.58;;
17595;SDS011;8916;47.086;15.920;2022-07-03T07:58:58;4.07;;;2.92;;
17595;SDS011;8916;47.086;15.920;2022-07-03T08:01:29;3.13;;;2.83;;
17595;SDS011;8916;47.086;15.920;2022-07-03T08:04:12;4.95;;;2.63;;
17595;SDS011;8916;47.086;15.920;2022-07-03T08:06:59;4.07;;;2.83;;
17595;SDS011;8916;47.086;15.920;2022-07-03T08:09:29;3.78;;;2.88;;
17595;SDS011;8916;47.086;15.920;2022-07-03T08:11:58;5.35;;;2.83;;
17595;SDS011;8916;47.086;15.920;2022-07-03T08:14:27;5.82;;;2.90;;
17595;SDS011;8916;47.086;15.920;2022-07-03T08:16:58;3.35;;;2.80;;
17595;SDS011;8916;47.086;15.920;2022-07-03T08:19:27;3.08;;;2.78;;
17595;SDS011;8916;47.086;15.920;2022-07-03T08:21:57;6.40;;;2.90;;
17595;SDS011;8916;47.086;15.920;2022-07-03T08:24:27;6.57;;;2.70;;
17595;SDS011;8916;47.086;15.920;2022-07-03T08:26:57;5.55;;;2.88;;
17595;SDS011;8916;47.086;15.920;2022-07-03T08:29:28;3.28;;;2.70;;
17595;SDS011;8916;47.086;15.920;2022-07-03T08:32:04;4.22;;;2.95;;
17595;SDS011;8916;47.086;15.920;2022-07-03T08:34:36;4.38;;;2.70;;
17595;SDS011;8916;47.086;15.920;2022-07-03T08:37:05;4.03;;;2.75;;
17595;SDS011;8916;47.086;15.920;2022-07-03T08:39:34;5.20;;;2.90;;
17595;SDS011;8916;47.086;15.920;2022-07-03T08:42:04;3.58;;;2.63;;
17595;SDS011;8916;47.086;15.920;2022-07-03T08:44:35;4.93;;;2.80;;
17595;SDS011;8916;47.086;15.920;2022-07-03T08:47:07;3.90;;;2.90;;
17595;SDS011;8916;47.086;15.920;2022-07-03T08:49:40;3.15;;;2.65;;
17595;SDS011;8916;47.086;15.920;2022-07-03T08:52:11;4.03;;;2.83;;
17595;SDS011;8916;47.086;15.920;2022-07-03T08:54:41;3.78;;;3.00;;
17595;SDS011;8916;47.086;15.920;2022-07-03T08:57:11;5.28;;;2.80;;
17595;SDS011;8916;47.086;15.920;2022-07-03T08:59:40;3.38;;;2.50;;
17595;SDS011;8916;47.086;15.920;2022-07-03T09:02:15;6.65;;;2.70;;
17595;SDS011;8916;47.086;15.920;2022-07-03T09:04:46;4.95;;;2.65;;
17595;SDS011;8916;47.086;15.920;2022-07-03T09:07:17;6.68;;;2.70;;
17595;SDS011;8916;47.086;15.920;2022-07-03T09:09:48;2.75;;;2.50;;
17595;SDS011;8916;47.086;15.920;2022-07-03T09:12:17;3.70;;;2.78;;
17595;SDS011;8916;47.086;15.920;2022-07-03T09:14:48;3.25;;;2.60;;
17595;SDS011;8916;47.086;15.920;2022-07-03T09:17:20;3.30;;;2.67;;
17595;SDS011;8916;47.086;15.920;2022-07-03T09:19:51;4.45;;;3.05;;
17595;SDS011;8916;47.086;15.920;2022-07-03T09:22:22;3.95;;;2.83;;
17595;SDS011;8916;47.086;15.920;2022-07-03T09:24:54;4.18;;;2.80;;
17595;SDS011;8916;47.086;15.920;2022-07-03T09:27:34;4.20;;;2.75;;
17595;SDS011;8916;47.086;15.920;2022-07-03T09:30:04;3.55;;;2.55;;
17595;SDS011;8916;47.086;15.920;2022-07-03T09:32:45;2.83;;;2.42;;
17595;SDS011;8916;47.086;15.920;2022-07-03T09:35:16;4.25;;;2.80;;
17595;SDS011;8916;47.086;15.920;2022-07-03T09:37:48;4.40;;;2.85;;
17595;SDS011;8916;47.086;15.920;2022-07-03T09:40:21;3.80;;;2.60;;
17595;SDS011;8916;47.086;15.920;2022-07-03T09:43:01;3.50;;;2.60;;
17595;SDS011;8916;47.086;15.920;2022-07-03T09:45:49;5.85;;;2.85;;
17595;SDS011;8916;47.086;15.920;2022-07-03T09:51:18;3.65;;;2.70;;
17595;SDS011;8916;47.086;15.920;2022-07-03T09:53:52;4.40;;;3.15;;
17595;SDS011;8916;47.086;15.920;2022-07-03T09:56:25;4.45;;;2.90;;
17595;SDS011;8916;47.086;15.920;2022-07-03T09:59:06;7.78;;;3.20;;
17595;SDS011;8916;47.086;15.920;2022-07-03T10:01:38;6.05;;;2.97;;
17595;SDS011;8916;47.086;15.920;2022-07-03T10:04:11;3.47;;;2.63;;
17595;SDS011;8916;47.086;15.920;2022-07-03T10:06:47;5.75;;;2.58;;
17595;SDS011;8916;47.086;15.920;2022-07-03T10:09:23;4.35;;;2.88;;
17595;SDS011;8916;47.086;15.920;2022-07-03T10:11:54;3.83;;;2.88;;
17595;SDS011;8916;47.086;15.920;2022-07-03T10:14:26;4.78;;;2.90;;
17595;SDS011;8916;47.086;15.920;2022-07-03T10:16:57;4.32;;;2.95;;
17595;SDS011;8916;47.086;15.920;2022-07-03T10:19:30;3.42;;;2.95;;
17595;SDS011;8916;47.086;15.920;2022-07-03T10:22:08;3.45;;;2.92;;
17595;SDS011;8916;47.086;15.920;2022-07-03T10:24:47;4.65;;;2.88;;
17595;SDS011;8916;47.086;15.920;2022-07-03T10:27:17;12.63;;;7.25;;
17595;SDS011;8916;47.086;15.920;2022-07-03T10:29:46;3.88;;;3.03;;
17595;SDS011;8916;47.086;15.920;2022-07-03T10:32:18;10.27;;;6.38;;
17595;SDS011;8916;47.086;15.920;2022-07-03T10:34:50;10.45;;;6.55;;
17595;SDS011;8916;47.086;15.920;2022-07-03T10:37:21;6.50;;;2.88;;
17595;SDS011;8916;47.086;15.920;2022-07-03T10:40:07;6.22;;;3.60;;
17595;SDS011;8916;47.086;15.920;2022-07-03T10:43:06;4.60;;;3.10;;
17595;SDS011;8916;47.086;15.920;2022-07-03T10:46:07;5.32;;;3.55;;
17595;SDS011;8916;47.086;15.920;2022-07-03T10:51:53;3.33;;;2.65;;
17595;SDS011;8916;47.086;15.920;2022-07-03T10:54:25;5.72;;;2.80;;
17595;SDS011;8916;47.086;15.920;2022-07-03T10:57:05;5.35;;;2.97;;
17595;SDS011;8916;47.086;15.920;2022-07-03T10:59:59;4.13;;;2.90;;
17595;SDS011;8916;47.086;15.920;2022-07-03T11:02:37;4.47;;;2.75;;
17595;SDS011;8916;47.086;15.920;2022-07-03T11:05:09;3.90;;;2.78;;
17595;SDS011;8916;47.086;15.920;2022-07-03T11:08:10;3.67;;;2.78;;
17595;SDS011;8916;47.086;15.920;2022-07-03T11:10:41;5.35;;;2.88;;
17595;SDS011;8916;47.086;15.920;2022-07-03T11:13:37;3.42;;;2.50;;
17595;SDS011;8916;47.086;15.920;2022-07-03T11:16:48;3.00;;;2.50;;
17595;SDS011;8916;47.086;15.920;2022-07-03T11:19:38;2.90;;;2.38;;
17595;SDS011;8916;47.086;15.920;2022-07-03T11:22:09;4.20;;;2.50;;
17595;SDS011;8916;47.086;15.920;2022-07-03T11:24:49;3.38;;;2.63;;
17595;SDS011;8916;47.086;15.920;2022-07-03T11:27:23;4.05;;;2.53;;
17595;SDS011;8916;47.086;15.920;2022-07-03T11:29:56;5.10;;;2.90;;
17595;SDS011;8916;47.086;15.920;2022-07-03T11:32:42;4.85;;;2.38;;
17595;SDS011;8916;47.086;15.920;2022-07-03T11:40:59;4.38;;;2.22;;
17595;SDS011;8916;47.086;15.920;2022-07-03T11:43:29;4.78;;;2.40;;
17595;SDS011;8916;47.086;15.920;2022-07-03T11:46:04;3.35;;;2.50;;
17595;SDS011;8916;47.086;15.920;2022-07-03T11:48:41;4.45;;;2.45;;
17595;SDS011;8916;47.086;15.920;2022-07-03T11:51:14;3.00;;;2.47;;
17595;SDS011;8916;47.086;15.920;2022-07-03T11:53:54;2.60;;;2.40;;
17595;SDS011;8916;47.086;15.920;2022-07-03T11:56:25;7.40;;;2.40;;
17595;SDS011;8916;47.086;15.920;2022-07-03T11:59:04;5.38;;;2.50;;
17595;SDS011;8916;47.086;15.920;2022-07-03T12:04:36;6.35;;;2.58;;
17595;SDS011;8916;47.086;15.920;2022-07-03T12:07:08;2.88;;;2.58;;
17595;SDS011;8916;47.086;15.920;2022-07-03T12:09:43;3.65;;;2.60;;
17595;SDS011;8916;47.086;15.920;2022-07-03T12:12:23;2.60;;;2.15;;
17595;SDS011;8916;47.086;15.920;2022-07-03T12:14:55;5.40;;;2.25;;
17595;SDS011;8916;47.086;15.920;2022-07-03T12:17:30;4.18;;;2.10;;
17595;SDS011;8916;47.086;15.920;2022-07-03T12:22:45;3.47;;;2.30;;
17595;SDS011;8916;47.086;15.920;2022-07-03T12:25:17;2.80;;;2.17;;
17595;SDS011;8916;47.086;15.920;2022-07-03T12:30:43;3.60;;;2.63;;
17595;SDS011;8916;47.086;15.920;2022-07-03T12:33:14;4.35;;;2.55;;
17595;SDS011;8916;47.086;15.920;2022-07-03T12:35:58;3.45;;;2.25;;
17595;SDS011;8916;47.086;15.920;2022-07-03T12:38:40;3.22;;;2.40;;
17595;SDS011;8916;47.086;15.920;2022-07-03T12:41:13;2.47;;;2.28;;
17595;SDS011;8916;47.086;15.920;2022-07-03T12:43:46;3.50;;;2.20;;
17595;SDS011;8916;47.086;15.920;2022-07-03T12:46:21;4.57;;;2.30;;
17595;SDS011;8916;47.086;15.920;2022-07-03T12:48:54;8.00;;;2.60;;
17595;SDS011;8916;47.086;15.920;2022-07-03T12:51:41;2.88;;;2.30;;
17595;SDS011;8916;47.086;15.920;2022-07-03T12:56:43;3.88;;;2.50;;
17595;SDS011;8916;47.086;15.920;2022-07-03T12:59:26;3.42;;;2.10;;
17595;SDS011;8916;47.086;15.920;2022-07-03T13:02:00;3.55;;;2.60;;
17595;SDS011;8916;47.086;15.920;2022-07-03T13:04:32;3.88;;;2.45;;
17595;SDS011;8916;47.086;15.920;2022-07-03T13:07:03;3.10;;;2.10;;
17595;SDS011;8916;47.086;15.920;2022-07-03T13:09:34;3.72;;;2.05;;
17595;SDS011;8916;47.086;15.920;2022-07-03T13:12:05;5.57;;;2.42;;
17595;SDS011;8916;47.086;15.920;2022-07-03T13:14:37;4.55;;;2.35;;
17595;SDS011;8916;47.086;15.920;2022-07-03T13:17:07;3.70;;;2.42;;
17595;SDS011;8916;47.086;15.920;2022-07-03T13:19:36;2.50;;;2.30;;
17595;SDS011;8916;47.086;15.920;2022-07-03T13:22:05;3.58;;;2.30;;
17595;SDS011;8916;47.086;15.920;2022-07-03T13:24:35;3.30;;;2.28;;
17595;SDS011;8916;47.086;15.920;2022-07-03T13:27:04;2.80;;;2.22;;
17595;SDS011;8916;47.086;15.920;2022-07-03T13:29:33;2.67;;;2.20;;
17595;SDS011;8916;47.086;15.920;2022-07-03T13:32:05;6.68;;;2.35;;
17595;SDS011;8916;47.086;15.920;2022-07-03T13:34:36;5.15;;;2.72;;
17595;SDS011;8916;47.086;15.920;2022-07-03T13:37:07;4.63;;;2.25;;
17595;SDS011;8916;47.086;15.920;2022-07-03T13:39:37;2.90;;;2.40;;
17595;SDS011;8916;47.086;15.920;2022-07-03T13:42:06;3.25;;;2.20;;
17595;SDS011;8916;47.086;15.920;2022-07-03T13:44:38;3.55;;;2.50;;
17595;SDS011;8916;47.086;15.920;2022-07-03T13:47:09;3.65;;;2.40;;
17595;SDS011;8916;47.086;15.920;2022-07-03T13:49:39;3.38;;;2.30;;
17595;SDS011;8916;47.086;15.920;2022-07-03T13:52:09;3.15;;;2.20;;
17595;SDS011;8916;47.086;15.920;2022-07-03T13:54:38;2.80;;;2.50;;
17595;SDS011;8916;47.086;15.920;2022-07-03T13:57:07;2.75;;;2.40;;
17595;SDS011;8916;47.086;15.920;2022-07-03T13:59:37;3.78;;;2.45;;
17595;SDS011;8916;47.086;15.920;2022-07-03T14:02:07;2.40;;;2.20;;
17595;SDS011;8916;47.086;15.920;2022-07-03T14:04:38;3.65;;;2.28;;
17595;SDS011;8916;47.086;15.920;2022-07-03T14:07:08;2.88;;;2.55;;
17595;SDS011;8916;47.086;15.920;2022-07-03T14:09:38;3.40;;;2.25;;
17595;SDS011;8916;47.086;15.920;2022-07-03T14:12:07;3.08;;;2.30;;
17595;SDS011;8916;47.086;15.920;2022-07-03T14:14:37;2.38;;;2.17;;
17595;SDS011;8916;47.086;15.920;2022-07-03T14:17:07;2.92;;;2.28;;
17595;SDS011;8916;47.086;15.920;2022-07-03T14:19:38;2.90;;;2.30;;
17595;SDS011;8916;47.086;15.920;2022-07-03T14:22:08;6.25;;;2.45;;
17595;SDS011;8916;47.086;15.920;2022-07-03T14:24:37;2.83;;;2.50;;
17595;SDS011;8916;47.086;15.920;2022-07-03T14:27:07;2.80;;;2.28;;
17595;SDS011;8916;47.086;15.920;2022-07-03T14:29:54;3.20;;;2.40;;
17595;SDS011;8916;47.086;15.920;2022-07-03T14:32:41;2.55;;;2.35;;
17595;SDS011;8916;47.086;15.920;2022-07-03T14:35:12;2.97;;;2.10;;
17595;SDS011;8916;47.086;15.920;2022-07-03T14:37:42;2.83;;;2.25;;
17595;SDS011;8916;47.086;15.920;2022-07-03T14:40:11;3.53;;;2.28;;
17595;SDS011;8916;47.086;15.920;2022-07-03T14:42:47;4.03;;;2.60;;
17595;SDS011;8916;47.086;15.920;2022-07-03T14:45:16;4.15;;;2.42;;
17595;SDS011;8916;47.086;15.920;2022-07-03T14:47:48;3.63;;;2.67;;
17595;SDS011;8916;47.086;15.920;2022-07-03T14:50:22;2.88;;;2.40;;
17595;SDS011;8916;47.086;15.920;2022-07-03T14:52:54;3.40;;;2.08;;
17595;SDS011;8916;47.086;15.920;2022-07-03T14:55:24;3.22;;;2.20;;
17595;SDS011;8916;47.086;15.920;2022-07-03T14:58:02;6.45;;;2.33;;
17595;SDS011;8916;47.086;15.920;2022-07-03T15:00:46;2.80;;;2.58;;
17595;SDS011;8916;47.086;15.920;2022-07-03T15:03:19;2.80;;;2.42;;
17595;SDS011;8916;47.086;15.920;2022-07-03T15:05:58;2.78;;;2.28;;
17595;SDS011;8916;47.086;15.920;2022-07-03T15:08:37;3.75;;;2.30;;
17595;SDS011;8916;47.086;15.920;2022-07-03T15:11:19;7.85;;;2.50;;
17595;SDS011;8916;47.086;15.920;2022-07-03T15:14:08;4.13;;;2.30;;
17595;SDS011;8916;47.086;15.920;2022-07-03T15:16:39;3.58;;;2.20;;
17595;SDS011;8916;47.086;15.920;2022-07-03T15:19:12;3.08;;;2.35;;
17595;SDS011;8916;47.086;15.920;2022-07-03T15:21:45;2.30;;;2.10;;
17595;SDS011;8916;47.086;15.920;2022-07-03T15:24:15;4.53;;;2.30;;
17595;SDS011;8916;47.086;15.920;2022-07-03T15:26:53;2.72;;;2.40;;
17595;SDS011;8916;47.086;15.920;2022-07-03T15:29:24;4.90;;;2.40;;
17595;SDS011;8916;47.086;15.920;2022-07-03T15:31:53;4.78;;;2.50;;
17595;SDS011;8916;47.086;15.920;2022-07-03T15:34:25;3.45;;;2.63;;
17595;SDS011;8916;47.086;15.920;2022-07-03T15:37:02;6.85;;;2.58;;
17595;SDS011;8916;47.086;15.920;2022-07-03T15:39:46;5.27;;;2.33;;
17595;SDS011;8916;47.086;15.920;2022-07-03T15:42:25;2.65;;;2.38;;
17595;SDS011;8916;47.086;15.920;2022-07-03T15:45:06;3.65;;;2.35;;
17595;SDS011;8916;47.086;15.920;2022-07-03T15:47:46;4.72;;;2.47;;
17595;SDS011;8916;47.086;15.920;2022-07-03T15:50:27;4.40;;;2.20;;
17595;SDS011;8916;47.086;15.920;2022-07-03T15:53:14;5.55;;;2.45;;
17595;SDS011;8916;47.086;15.920;2022-07-03T15:55:53;3.72;;;2.63;;